sensor_id;sensor_type;location;lat;lon;timestamp;P1;durP1;ratioP1;P2;durP2;ratioP2
79139;SDS011;68546;59.142;37.948;2023-07-13T00:00:07;6.28;;;1.90;;
79139;SDS011;68546;59.142;37.948;2023-07-13T00:02:38;7.07;;;1.77;;
79139;SDS011;68546;59.142;37.948;2023-07-13T00:05:05;6.53;;;1.42;;
79139;SDS011;68546;59.142;37.948;2023-07-13T00:07:32;4.75;;;1.40;;
79139;SDS011;68546;59.142;37.948;2023-07-13T00:09:58;12.23;;;2.22;;
79139;SDS011;68546;59.142;37.948;2023-07-13T00:12:28;5.93;;;2.00;;
79139;SDS011;68546;59.142;37.948;2023-07-13T00:15:04;6.40;;;1.33;;
79139;SDS011;68546;59.142;37.948;2023-07-13T00:17:38;5.47;;;1.52;;
79139;SDS011;68546;59.142;37.948;2023-07-13T00:20:05;6.30;;;1.50;;
79139;SDS011;68546;59.142;37.948;2023-07-13T00:22:33;4.15;;;0.98;;
79139;SDS011;68546;59.142;37.948;2023-07-13T00:24:59;5.13;;;1.23;;
79139;SDS011;68546;59.142;37.948;2023-07-13T00:27:25;3.73;;;0.80;;
79139;SDS011;68546;59.142;37.948;2023-07-13T00:29:52;5.90;;;1.20;;
79139;SDS011;68546;59.142;37.948;2023-07-13T00:32:18;4.93;;;0.88;;
79139;SDS011;68546;59.142;37.948;2023-07-13T00:34:45;4.45;;;0.95;;
79139;SDS011;68546;59.142;37.948;2023-07-13T00:37:12;3.90;;;0.80;;
79139;SDS011;68546;59.142;37.948;2023-07-13T00:39:39;3.03;;;0.60;;
79139;SDS011;68546;59.142;37.948;2023-07-13T00:42:05;2.63;;;0.43;;
79139;SDS011;68546;59.142;37.948;2023-07-13T00:44:32;3.08;;;0.65;;
79139;SDS011;68546;59.142;37.948;2023-07-13T00:46:59;3.30;;;0.70;;
79139;SDS011;68546;59.142;37.948;2023-07-13T00:49:26;4.25;;;0.80;;
79139;SDS011;68546;59.142;37.948;2023-07-13T00:51:55;4.33;;;1.00;;
79139;SDS011;68546;59.142;37.948;2023-07-13T00:54:36;6.88;;;1.40;;
79139;SDS011;68546;59.142;37.948;2023-07-13T00:57:07;4.30;;;1.20;;
79139;SDS011;68546;59.142;37.948;2023-07-13T00:59:35;5.18;;;1.50;;
79139;SDS011;68546;59.142;37.948;2023-07-13T01:02:05;4.10;;;1.00;;
79139;SDS011;68546;59.142;37.948;2023-07-13T01:04:31;4.20;;;1.00;;
79139;SDS011;68546;59.142;37.948;2023-07-13T01:06:57;3.92;;;0.80;;
79139;SDS011;68546;59.142;37.948;2023-07-13T01:09:25;3.45;;;0.73;;
79139;SDS011;68546;59.142;37.948;2023-07-13T01:11:53;3.75;;;0.75;;
79139;SDS011;68546;59.142;37.948;2023-07-13T01:14:19;3.53;;;0.82;;
79139;SDS011;68546;59.142;37.948;2023-07-13T01:16:47;3.53;;;0.90;;
79139;SDS011;68546;59.142;37.948;2023-07-13T01:19:25;3.83;;;0.90;;
79139;SDS011;68546;59.142;37.948;2023-07-13T01:22:03;3.40;;;0.60;;
79139;SDS011;68546;59.142;37.948;2023-07-13T01:24:43;4.63;;;0.90;;
79139;SDS011;68546;59.142;37.948;2023-07-13T01:27:12;4.32;;;1.33;;
79139;SDS011;68546;59.142;37.948;2023-07-13T01:29:41;4.27;;;1.10;;
79139;SDS011;68546;59.142;37.948;2023-07-13T01:32:10;5.63;;;1.30;;
79139;SDS011;68546;59.142;37.948;2023-07-13T01:34:41;7.93;;;2.00;;
79139;SDS011;68546;59.142;37.948;2023-07-13T01:37:10;6.18;;;1.90;;
79139;SDS011;68546;59.142;37.948;2023-07-13T01:39:37;5.63;;;1.73;;
79139;SDS011;68546;59.142;37.948;2023-07-13T01:42:03;7.37;;;2.07;;
79139;SDS011;68546;59.142;37.948;2023-07-13T01:44:30;5.43;;;1.60;;
79139;SDS011;68546;59.142;37.948;2023-07-13T01:46:56;5.55;;;1.50;;
79139;SDS011;68546;59.142;37.948;2023-07-13T01:49:24;4.35;;;1.10;;
79139;SDS011;68546;59.142;37.948;2023-07-13T01:51:50;4.70;;;1.17;;
79139;SDS011;68546;59.142;37.948;2023-07-13T01:54:17;4.30;;;1.20;;
79139;SDS011;68546;59.142;37.948;2023-07-13T01:56:43;5.10;;;1.30;;
79139;SDS011;68546;59.142;37.948;2023-07-13T01:59:10;5.72;;;1.20;;
79139;SDS011;68546;59.142;37.948;2023-07-13T02:01:37;5.53;;;1.38;;
79139;SDS011;68546;59.142;37.948;2023-07-13T02:04:04;5.43;;;1.45;;
79139;SDS011;68546;59.142;37.948;2023-07-13T02:06:32;4.47;;;1.47;;
79139;SDS011;68546;59.142;37.948;2023-07-13T02:09:00;3.72;;;0.88;;
79139;SDS011;68546;59.142;37.948;2023-07-13T02:11:26;3.95;;;0.80;;
79139;SDS011;68546;59.142;37.948;2023-07-13T02:14:00;3.50;;;1.00;;
79139;SDS011;68546;59.142;37.948;2023-07-13T02:16:30;3.70;;;1.00;;
79139;SDS011;68546;59.142;37.948;2023-07-13T02:18:57;4.30;;;1.10;;
79139;SDS011;68546;59.142;37.948;2023-07-13T02:21:23;6.85;;;1.83;;
79139;SDS011;68546;59.142;37.948;2023-07-13T02:23:51;6.28;;;1.23;;
79139;SDS011;68546;59.142;37.948;2023-07-13T02:26:18;4.68;;;1.17;;
79139;SDS011;68546;59.142;37.948;2023-07-13T02:28:45;5.47;;;1.38;;
79139;SDS011;68546;59.142;37.948;2023-07-13T02:31:13;6.10;;;1.50;;
79139;SDS011;68546;59.142;37.948;2023-07-13T02:33:41;5.18;;;1.13;;
79139;SDS011;68546;59.142;37.948;2023-07-13T02:36:08;4.28;;;0.90;;
79139;SDS011;68546;59.142;37.948;2023-07-13T02:38:35;4.20;;;1.10;;
79139;SDS011;68546;59.142;37.948;2023-07-13T02:41:03;4.97;;;1.83;;
79139;SDS011;68546;59.142;37.948;2023-07-13T02:43:31;4.97;;;1.10;;
79139;SDS011;68546;59.142;37.948;2023-07-13T02:45:58;7.50;;;1.80;;
79139;SDS011;68546;59.142;37.948;2023-07-13T02:48:30;5.95;;;1.95;;
79139;SDS011;68546;59.142;37.948;2023-07-13T02:50:57;5.95;;;1.83;;
79139;SDS011;68546;59.142;37.948;2023-07-13T02:53:24;5.05;;;1.60;;
79139;SDS011;68546;59.142;37.948;2023-07-13T02:55:51;7.60;;;1.77;;
79139;SDS011;68546;59.142;37.948;2023-07-13T02:58:17;5.90;;;1.50;;
79139;SDS011;68546;59.142;37.948;2023-07-13T03:00:44;5.47;;;1.73;;
79139;SDS011;68546;59.142;37.948;2023-07-13T03:03:15;6.95;;;2.00;;
79139;SDS011;68546;59.142;37.948;2023-07-13T03:05:43;14.95;;;3.70;;
79139;SDS011;68546;59.142;37.948;2023-07-13T03:08:12;11.50;;;3.00;;
79139;SDS011;68546;59.142;37.948;2023-07-13T03:10:41;8.10;;;2.80;;
79139;SDS011;68546;59.142;37.948;2023-07-13T03:13:09;10.77;;;2.83;;
79139;SDS011;68546;59.142;37.948;2023-07-13T03:15:36;10.07;;;2.85;;
79139;SDS011;68546;59.142;37.948;2023-07-13T03:18:11;12.20;;;3.55;;
79139;SDS011;68546;59.142;37.948;2023-07-13T03:20:37;14.27;;;4.83;;
79139;SDS011;68546;59.142;37.948;2023-07-13T03:23:03;14.70;;;4.78;;
79139;SDS011;68546;59.142;37.948;2023-07-13T03:25:30;16.98;;;5.63;;
79139;SDS011;68546;59.142;37.948;2023-07-13T03:28:00;20.20;;;6.93;;
79139;SDS011;68546;59.142;37.948;2023-07-13T03:30:26;23.48;;;7.65;;
79139;SDS011;68546;59.142;37.948;2023-07-13T03:32:53;28.47;;;8.90;;
79139;SDS011;68546;59.142;37.948;2023-07-13T03:35:19;31.08;;;10.45;;
79139;SDS011;68546;59.142;37.948;2023-07-13T03:37:46;38.80;;;10.88;;
79139;SDS011;68546;59.142;37.948;2023-07-13T03:40:18;41.85;;;13.43;;
79139;SDS011;68546;59.142;37.948;2023-07-13T03:42:45;41.95;;;12.40;;
79139;SDS011;68546;59.142;37.948;2023-07-13T03:45:15;43.37;;;13.63;;
79139;SDS011;68546;59.142;37.948;2023-07-13T03:47:41;46.05;;;14.02;;
79139;SDS011;68546;59.142;37.948;2023-07-13T03:50:08;41.20;;;11.88;;
79139;SDS011;68546;59.142;37.948;2023-07-13T03:52:35;37.55;;;12.18;;
79139;SDS011;68546;59.142;37.948;2023-07-13T03:55:02;46.08;;;14.50;;
79139;SDS011;68546;59.142;37.948;2023-07-13T03:57:28;44.00;;;14.23;;
79139;SDS011;68546;59.142;37.948;2023-07-13T03:59:56;39.28;;;12.07;;
79139;SDS011;68546;59.142;37.948;2023-07-13T04:02:23;39.30;;;12.50;;
79139;SDS011;68546;59.142;37.948;2023-07-13T04:04:49;50.33;;;13.73;;
79139;SDS011;68546;59.142;37.948;2023-07-13T04:07:16;48.33;;;16.17;;
79139;SDS011;68546;59.142;37.948;2023-07-13T04:09:42;46.17;;;14.17;;
79139;SDS011;68546;59.142;37.948;2023-07-13T04:12:10;48.78;;;13.75;;
79139;SDS011;68546;59.142;37.948;2023-07-13T04:14:36;40.00;;;14.00;;
79139;SDS011;68546;59.142;37.948;2023-07-13T04:17:03;42.28;;;12.88;;
79139;SDS011;68546;59.142;37.948;2023-07-13T04:19:30;55.10;;;15.68;;
79139;SDS011;68546;59.142;37.948;2023-07-13T04:21:56;44.37;;;13.30;;
79139;SDS011;68546;59.142;37.948;2023-07-13T04:24:22;42.30;;;13.68;;
79139;SDS011;68546;59.142;37.948;2023-07-13T04:26:49;44.30;;;13.32;;
79139;SDS011;68546;59.142;37.948;2023-07-13T04:29:15;46.78;;;14.52;;
79139;SDS011;68546;59.142;37.948;2023-07-13T04:31:41;45.35;;;12.80;;
79139;SDS011;68546;59.142;37.948;2023-07-13T04:34:08;38.20;;;11.03;;
79139;SDS011;68546;59.142;37.948;2023-07-13T04:36:34;37.38;;;9.80;;
79139;SDS011;68546;59.142;37.948;2023-07-13T04:39:03;30.73;;;9.60;;
79139;SDS011;68546;59.142;37.948;2023-07-13T04:41:29;35.97;;;10.13;;
79139;SDS011;68546;59.142;37.948;2023-07-13T04:43:55;35.22;;;10.88;;
79139;SDS011;68546;59.142;37.948;2023-07-13T04:46:22;31.33;;;9.60;;
79139;SDS011;68546;59.142;37.948;2023-07-13T04:48:50;28.70;;;8.48;;
79139;SDS011;68546;59.142;37.948;2023-07-13T04:51:18;30.77;;;10.02;;
79139;SDS011;68546;59.142;37.948;2023-07-13T04:53:45;25.90;;;9.13;;
79139;SDS011;68546;59.142;37.948;2023-07-13T04:56:11;26.02;;;8.23;;
79139;SDS011;68546;59.142;37.948;2023-07-13T04:58:38;27.33;;;8.43;;
79139;SDS011;68546;59.142;37.948;2023-07-13T05:01:06;23.58;;;7.55;;
79139;SDS011;68546;59.142;37.948;2023-07-13T05:03:33;23.40;;;7.15;;
79139;SDS011;68546;59.142;37.948;2023-07-13T05:06:04;16.80;;;5.45;;
79139;SDS011;68546;59.142;37.948;2023-07-13T05:08:33;16.13;;;5.35;;
79139;SDS011;68546;59.142;37.948;2023-07-13T05:11:00;15.40;;;4.50;;
79139;SDS011;68546;59.142;37.948;2023-07-13T05:13:27;18.25;;;4.45;;
79139;SDS011;68546;59.142;37.948;2023-07-13T05:15:58;20.27;;;4.68;;
79139;SDS011;68546;59.142;37.948;2023-07-13T05:18:27;11.85;;;3.60;;
79139;SDS011;68546;59.142;37.948;2023-07-13T05:21:01;10.07;;;3.22;;
79139;SDS011;68546;59.142;37.948;2023-07-13T05:23:29;11.87;;;2.73;;
79139;SDS011;68546;59.142;37.948;2023-07-13T05:25:57;14.77;;;3.47;;
79139;SDS011;68546;59.142;37.948;2023-07-13T05:28:24;9.23;;;2.75;;
79139;SDS011;68546;59.142;37.948;2023-07-13T05:30:54;10.60;;;2.78;;
79139;SDS011;68546;59.142;37.948;2023-07-13T05:33:20;10.32;;;3.22;;
79139;SDS011;68546;59.142;37.948;2023-07-13T05:35:47;9.20;;;2.83;;
79139;SDS011;68546;59.142;37.948;2023-07-13T05:38:13;7.90;;;2.55;;
79139;SDS011;68546;59.142;37.948;2023-07-13T05:40:42;10.50;;;2.85;;
79139;SDS011;68546;59.142;37.948;2023-07-13T05:43:09;5.85;;;1.52;;
79139;SDS011;68546;59.142;37.948;2023-07-13T05:45:36;8.05;;;2.97;;
79139;SDS011;68546;59.142;37.948;2023-07-13T05:48:02;8.47;;;2.40;;
79139;SDS011;68546;59.142;37.948;2023-07-13T05:50:29;9.77;;;2.88;;
79139;SDS011;68546;59.142;37.948;2023-07-13T05:52:56;11.68;;;3.33;;
79139;SDS011;68546;59.142;37.948;2023-07-13T05:55:23;10.45;;;3.08;;
79139;SDS011;68546;59.142;37.948;2023-07-13T05:57:49;12.02;;;4.35;;
79139;SDS011;68546;59.142;37.948;2023-07-13T06:00:16;13.13;;;4.90;;
79139;SDS011;68546;59.142;37.948;2023-07-13T06:02:46;15.18;;;5.53;;
79139;SDS011;68546;59.142;37.948;2023-07-13T06:05:13;18.80;;;6.15;;
79139;SDS011;68546;59.142;37.948;2023-07-13T06:07:41;26.88;;;7.95;;
79139;SDS011;68546;59.142;37.948;2023-07-13T06:10:09;25.73;;;9.13;;
79139;SDS011;68546;59.142;37.948;2023-07-13T06:12:35;31.90;;;10.97;;
79139;SDS011;68546;59.142;37.948;2023-07-13T06:15:02;39.50;;;12.77;;
79139;SDS011;68546;59.142;37.948;2023-07-13T06:17:29;44.72;;;12.52;;
79139;SDS011;68546;59.142;37.948;2023-07-13T06:19:57;52.70;;;15.38;;
79139;SDS011;68546;59.142;37.948;2023-07-13T06:22:23;50.67;;;15.15;;
79139;SDS011;68546;59.142;37.948;2023-07-13T06:24:50;59.17;;;17.23;;
79139;SDS011;68546;59.142;37.948;2023-07-13T06:27:16;60.08;;;17.98;;
79139;SDS011;68546;59.142;37.948;2023-07-13T06:29:43;60.50;;;17.98;;
79139;SDS011;68546;59.142;37.948;2023-07-13T06:32:10;64.60;;;18.02;;
79139;SDS011;68546;59.142;37.948;2023-07-13T06:34:37;55.67;;;16.70;;
79139;SDS011;68546;59.142;37.948;2023-07-13T06:37:04;48.47;;;16.57;;
79139;SDS011;68546;59.142;37.948;2023-07-13T06:39:31;55.88;;;17.55;;
79139;SDS011;68546;59.142;37.948;2023-07-13T06:41:59;70.07;;;22.38;;
79139;SDS011;68546;59.142;37.948;2023-07-13T06:44:26;60.72;;;18.05;;
79139;SDS011;68546;59.142;37.948;2023-07-13T06:46:55;44.60;;;14.77;;
79139;SDS011;68546;59.142;37.948;2023-07-13T06:49:23;44.30;;;13.80;;
79139;SDS011;68546;59.142;37.948;2023-07-13T06:51:49;38.38;;;14.00;;
79139;SDS011;68546;59.142;37.948;2023-07-13T06:54:16;37.20;;;13.65;;
79139;SDS011;68546;59.142;37.948;2023-07-13T06:56:42;33.35;;;12.20;;
79139;SDS011;68546;59.142;37.948;2023-07-13T06:59:09;41.40;;;14.82;;
79139;SDS011;68546;59.142;37.948;2023-07-13T07:01:35;33.77;;;11.53;;
79139;SDS011;68546;59.142;37.948;2023-07-13T07:04:03;32.80;;;11.85;;
79139;SDS011;68546;59.142;37.948;2023-07-13T07:06:29;37.25;;;12.13;;
79139;SDS011;68546;59.142;37.948;2023-07-13T07:08:56;31.98;;;11.52;;
79139;SDS011;68546;59.142;37.948;2023-07-13T07:11:24;41.97;;;14.30;;
79139;SDS011;68546;59.142;37.948;2023-07-13T07:13:52;36.43;;;12.63;;
79139;SDS011;68546;59.142;37.948;2023-07-13T07:16:20;31.52;;;11.30;;
79139;SDS011;68546;59.142;37.948;2023-07-13T07:18:47;31.35;;;11.07;;
79139;SDS011;68546;59.142;37.948;2023-07-13T07:21:14;35.05;;;11.48;;
79139;SDS011;68546;59.142;37.948;2023-07-13T07:23:41;36.70;;;11.63;;
79139;SDS011;68546;59.142;37.948;2023-07-13T07:26:09;36.87;;;12.47;;
79139;SDS011;68546;59.142;37.948;2023-07-13T07:28:37;33.47;;;12.00;;
79139;SDS011;68546;59.142;37.948;2023-07-13T07:31:04;41.28;;;12.32;;
79139;SDS011;68546;59.142;37.948;2023-07-13T07:33:31;41.42;;;13.57;;
79139;SDS011;68546;59.142;37.948;2023-07-13T07:35:59;36.95;;;12.02;;
79139;SDS011;68546;59.142;37.948;2023-07-13T07:38:26;38.00;;;11.20;;
79139;SDS011;68546;59.142;37.948;2023-07-13T07:40:52;34.47;;;11.00;;
79139;SDS011;68546;59.142;37.948;2023-07-13T07:43:19;39.67;;;14.27;;
79139;SDS011;68546;59.142;37.948;2023-07-13T07:45:45;36.38;;;12.38;;
79139;SDS011;68546;59.142;37.948;2023-07-13T07:48:12;33.38;;;11.13;;
79139;SDS011;68546;59.142;37.948;2023-07-13T07:50:41;39.03;;;11.73;;
79139;SDS011;68546;59.142;37.948;2023-07-13T07:53:08;42.10;;;12.50;;
79139;SDS011;68546;59.142;37.948;2023-07-13T07:55:38;38.47;;;12.20;;
79139;SDS011;68546;59.142;37.948;2023-07-13T07:58:05;34.05;;;11.90;;
79139;SDS011;68546;59.142;37.948;2023-07-13T08:00:32;34.90;;;12.23;;
79139;SDS011;68546;59.142;37.948;2023-07-13T08:03:00;31.97;;;11.03;;
79139;SDS011;68546;59.142;37.948;2023-07-13T08:05:28;39.03;;;12.70;;
79139;SDS011;68546;59.142;37.948;2023-07-13T08:07:54;34.45;;;13.07;;
79139;SDS011;68546;59.142;37.948;2023-07-13T08:10:21;32.85;;;11.48;;
79139;SDS011;68546;59.142;37.948;2023-07-13T08:12:48;42.20;;;12.45;;
79139;SDS011;68546;59.142;37.948;2023-07-13T08:15:16;36.03;;;11.23;;
79139;SDS011;68546;59.142;37.948;2023-07-13T08:17:44;33.00;;;11.15;;
79139;SDS011;68546;59.142;37.948;2023-07-13T08:20:16;26.55;;;10.07;;
79139;SDS011;68546;59.142;37.948;2023-07-13T08:22:46;28.27;;;8.80;;
79139;SDS011;68546;59.142;37.948;2023-07-13T08:25:14;38.15;;;11.45;;
79139;SDS011;68546;59.142;37.948;2023-07-13T08:27:41;32.43;;;10.87;;
79139;SDS011;68546;59.142;37.948;2023-07-13T08:30:09;33.50;;;11.32;;
79139;SDS011;68546;59.142;37.948;2023-07-13T08:32:36;33.78;;;10.38;;
79139;SDS011;68546;59.142;37.948;2023-07-13T08:35:06;37.45;;;11.07;;
79139;SDS011;68546;59.142;37.948;2023-07-13T08:37:34;37.47;;;11.77;;
79139;SDS011;68546;59.142;37.948;2023-07-13T08:40:00;38.57;;;11.93;;
79139;SDS011;68546;59.142;37.948;2023-07-13T08:43:00;35.00;;;11.52;;
79139;SDS011;68546;59.142;37.948;2023-07-13T08:45:25;36.30;;;11.90;;
79139;SDS011;68546;59.142;37.948;2023-07-13T08:48:00;38.13;;;11.88;;
79139;SDS011;68546;59.142;37.948;2023-07-13T08:50:36;34.30;;;12.00;;
79139;SDS011;68546;59.142;37.948;2023-07-13T08:53:16;31.07;;;8.73;;
79139;SDS011;68546;59.142;37.948;2023-07-13T08:55:47;29.95;;;9.20;;
79139;SDS011;68546;59.142;37.948;2023-07-13T08:58:18;24.77;;;7.78;;
79139;SDS011;68546;59.142;37.948;2023-07-13T09:03:22;20.60;;;6.20;;
79139;SDS011;68546;59.142;37.948;2023-07-13T09:05:55;16.37;;;5.47;;
79139;SDS011;68546;59.142;37.948;2023-07-13T09:11:14;18.10;;;6.13;;
79139;SDS011;68546;59.142;37.948;2023-07-13T09:16:33;26.48;;;8.35;;
79139;SDS011;68546;59.142;37.948;2023-07-13T09:19:02;26.70;;;8.57;;
79139;SDS011;68546;59.142;37.948;2023-07-13T09:21:32;26.38;;;7.45;;
79139;SDS011;68546;59.142;37.948;2023-07-13T09:26:49;32.53;;;9.15;;
79139;SDS011;68546;59.142;37.948;2023-07-13T09:29:37;31.30;;;8.88;;
79139;SDS011;68546;59.142;37.948;2023-07-13T09:32:06;30.50;;;9.40;;
79139;SDS011;68546;59.142;37.948;2023-07-13T09:34:37;30.02;;;8.38;;
79139;SDS011;68546;59.142;37.948;2023-07-13T09:37:03;33.67;;;10.48;;
79139;SDS011;68546;59.142;37.948;2023-07-13T09:39:35;35.80;;;9.88;;
79139;SDS011;68546;59.142;37.948;2023-07-13T09:44:37;35.27;;;9.93;;
79139;SDS011;68546;59.142;37.948;2023-07-13T09:47:17;36.65;;;11.18;;
79139;SDS011;68546;59.142;37.948;2023-07-13T09:50:08;27.08;;;8.70;;
79139;SDS011;68546;59.142;37.948;2023-07-13T09:52:45;29.15;;;9.48;;
79139;SDS011;68546;59.142;37.948;2023-07-13T10:00:58;21.58;;;6.43;;
79139;SDS011;68546;59.142;37.948;2023-07-13T10:03:31;19.20;;;6.63;;
79139;SDS011;68546;59.142;37.948;2023-07-13T10:06:24;17.30;;;5.25;;
79139;SDS011;68546;59.142;37.948;2023-07-13T10:08:52;18.42;;;5.63;;
79139;SDS011;68546;59.142;37.948;2023-07-13T10:11:23;10.47;;;3.80;;
79139;SDS011;68546;59.142;37.948;2023-07-13T10:14:01;13.02;;;4.00;;
79139;SDS011;68546;59.142;37.948;2023-07-13T10:16:35;8.35;;;2.80;;
79139;SDS011;68546;59.142;37.948;2023-07-13T10:19:08;7.22;;;1.92;;
79139;SDS011;68546;59.142;37.948;2023-07-13T10:21:56;7.22;;;1.75;;
79139;SDS011;68546;59.142;37.948;2023-07-13T10:24:30;5.73;;;1.10;;
79139;SDS011;68546;59.142;37.948;2023-07-13T10:27:05;4.13;;;1.13;;
79139;SDS011;68546;59.142;37.948;2023-07-13T10:29:36;5.07;;;0.90;;
79139;SDS011;68546;59.142;37.948;2023-07-13T10:32:11;5.45;;;1.25;;
79139;SDS011;68546;59.142;37.948;2023-07-13T10:34:39;6.03;;;1.30;;
79139;SDS011;68546;59.142;37.948;2023-07-13T10:37:07;4.20;;;1.23;;
79139;SDS011;68546;59.142;37.948;2023-07-13T10:39:55;4.18;;;0.80;;
79139;SDS011;68546;59.142;37.948;2023-07-13T10:42:30;3.95;;;1.23;;
79139;SDS011;68546;59.142;37.948;2023-07-13T10:45:01;3.47;;;0.90;;
79139;SDS011;68546;59.142;37.948;2023-07-13T10:47:27;3.38;;;0.88;;
79139;SDS011;68546;59.142;37.948;2023-07-13T10:49:56;2.50;;;0.40;;
79139;SDS011;68546;59.142;37.948;2023-07-13T10:58:22;2.67;;;0.50;;
79139;SDS011;68546;59.142;37.948;2023-07-13T11:01:06;2.42;;;0.40;;
79139;SDS011;68546;59.142;37.948;2023-07-13T11:09:03;3.45;;;0.63;;
79139;SDS011;68546;59.142;37.948;2023-07-13T11:11:45;3.53;;;0.70;;
79139;SDS011;68546;59.142;37.948;2023-07-13T11:14:27;6.05;;;0.82;;
79139;SDS011;68546;59.142;37.948;2023-07-13T11:20:42;4.60;;;0.98;;
79139;SDS011;68546;59.142;37.948;2023-07-13T11:25:29;5.65;;;2.05;;
79139;SDS011;68546;59.142;37.948;2023-07-13T11:33:23;4.97;;;1.30;;
79139;SDS011;68546;59.142;37.948;2023-07-13T11:36:03;5.80;;;1.40;;
79139;SDS011;68546;59.142;37.948;2023-07-13T11:38:58;4.07;;;1.02;;
79139;SDS011;68546;59.142;37.948;2023-07-13T11:44:23;6.33;;;1.27;;
79139;SDS011;68546;59.142;37.948;2023-07-13T11:46:55;3.72;;;0.95;;
79139;SDS011;68546;59.142;37.948;2023-07-13T11:49:29;4.68;;;1.20;;
79139;SDS011;68546;59.142;37.948;2023-07-13T11:51:57;4.93;;;1.30;;
79139;SDS011;68546;59.142;37.948;2023-07-13T11:54:31;3.50;;;0.77;;
79139;SDS011;68546;59.142;37.948;2023-07-13T11:57:01;3.47;;;0.70;;
79139;SDS011;68546;59.142;37.948;2023-07-13T11:59:32;4.10;;;0.77;;
79139;SDS011;68546;59.142;37.948;2023-07-13T12:02:08;3.60;;;0.70;;
79139;SDS011;68546;59.142;37.948;2023-07-13T12:04:49;3.08;;;0.60;;
79139;SDS011;68546;59.142;37.948;2023-07-13T12:07:18;4.72;;;0.98;;
79139;SDS011;68546;59.142;37.948;2023-07-13T12:09:47;3.70;;;1.03;;
79139;SDS011;68546;59.142;37.948;2023-07-13T12:12:21;4.32;;;0.90;;
79139;SDS011;68546;59.142;37.948;2023-07-13T12:14:51;3.40;;;0.98;;
79139;SDS011;68546;59.142;37.948;2023-07-13T12:17:19;4.00;;;1.10;;
79139;SDS011;68546;59.142;37.948;2023-07-13T12:19:48;4.85;;;1.50;;
79139;SDS011;68546;59.142;37.948;2023-07-13T12:22:17;4.33;;;1.00;;
79139;SDS011;68546;59.142;37.948;2023-07-13T12:24:46;3.83;;;0.90;;
79139;SDS011;68546;59.142;37.948;2023-07-13T12:27:21;3.38;;;0.85;;
79139;SDS011;68546;59.142;37.948;2023-07-13T12:32:25;4.55;;;1.52;;
79139;SDS011;68546;59.142;37.948;2023-07-13T12:34:56;3.50;;;0.97;;
79139;SDS011;68546;59.142;37.948;2023-07-13T12:37:46;4.82;;;1.33;;
79139;SDS011;68546;59.142;37.948;2023-07-13T12:40:13;3.80;;;1.00;;
79139;SDS011;68546;59.142;37.948;2023-07-13T12:42:46;2.85;;;0.60;;
79139;SDS011;68546;59.142;37.948;2023-07-13T12:45:19;3.63;;;0.70;;
79139;SDS011;68546;59.142;37.948;2023-07-13T12:47:50;3.40;;;0.90;;
79139;SDS011;68546;59.142;37.948;2023-07-13T12:50:23;3.70;;;0.88;;
79139;SDS011;68546;59.142;37.948;2023-07-13T12:53:00;3.83;;;1.30;;
79139;SDS011;68546;59.142;37.948;2023-07-13T12:55:29;2.70;;;0.70;;
79139;SDS011;68546;59.142;37.948;2023-07-13T12:57:59;3.03;;;0.80;;
79139;SDS011;68546;59.142;37.948;2023-07-13T13:00:35;3.33;;;0.80;;
79139;SDS011;68546;59.142;37.948;2023-07-13T13:05:57;3.67;;;0.80;;
79139;SDS011;68546;59.142;37.948;2023-07-13T13:08:26;3.20;;;0.70;;
79139;SDS011;68546;59.142;37.948;2023-07-13T13:10:52;2.50;;;0.50;;
79139;SDS011;68546;59.142;37.948;2023-07-13T13:13:19;3.67;;;0.70;;
79139;SDS011;68546;59.142;37.948;2023-07-13T13:15:45;4.00;;;1.33;;
79139;SDS011;68546;59.142;37.948;2023-07-13T13:18:15;2.90;;;0.65;;
79139;SDS011;68546;59.142;37.948;2023-07-13T13:20:45;2.75;;;0.50;;
79139;SDS011;68546;59.142;37.948;2023-07-13T13:23:13;2.70;;;0.50;;
79139;SDS011;68546;59.142;37.948;2023-07-13T13:25:44;2.53;;;0.50;;
79139;SDS011;68546;59.142;37.948;2023-07-13T13:28:15;2.75;;;0.60;;
79139;SDS011;68546;59.142;37.948;2023-07-13T13:30:43;3.22;;;0.70;;
79139;SDS011;68546;59.142;37.948;2023-07-13T13:33:12;4.10;;;1.20;;
79139;SDS011;68546;59.142;37.948;2023-07-13T13:35:41;3.15;;;0.63;;
79139;SDS011;68546;59.142;37.948;2023-07-13T13:38:19;2.90;;;0.73;;
79139;SDS011;68546;59.142;37.948;2023-07-13T13:40:51;3.20;;;0.82;;
79139;SDS011;68546;59.142;37.948;2023-07-13T13:43:21;4.63;;;1.10;;
79139;SDS011;68546;59.142;37.948;2023-07-13T13:45:52;3.30;;;0.80;;
79139;SDS011;68546;59.142;37.948;2023-07-13T13:48:31;3.25;;;0.70;;
79139;SDS011;68546;59.142;37.948;2023-07-13T13:51:06;3.77;;;0.60;;
79139;SDS011;68546;59.142;37.948;2023-07-13T13:53:47;3.20;;;0.60;;
79139;SDS011;68546;59.142;37.948;2023-07-13T13:56:15;2.67;;;0.50;;
79139;SDS011;68546;59.142;37.948;2023-07-13T13:58:45;2.33;;;0.40;;
79139;SDS011;68546;59.142;37.948;2023-07-13T14:01:14;2.50;;;0.50;;
79139;SDS011;68546;59.142;37.948;2023-07-13T14:03:44;2.27;;;0.50;;
79139;SDS011;68546;59.142;37.948;2023-07-13T14:06:12;4.50;;;1.00;;
79139;SDS011;68546;59.142;37.948;2023-07-13T14:08:41;2.67;;;0.52;;
79139;SDS011;68546;59.142;37.948;2023-07-13T14:11:11;3.20;;;0.70;;
79139;SDS011;68546;59.142;37.948;2023-07-13T14:13:43;3.00;;;0.50;;
79139;SDS011;68546;59.142;37.948;2023-07-13T14:16:17;2.57;;;0.53;;
79139;SDS011;68546;59.142;37.948;2023-07-13T14:18:46;3.35;;;0.50;;
79139;SDS011;68546;59.142;37.948;2023-07-13T14:21:13;2.97;;;0.65;;
79139;SDS011;68546;59.142;37.948;2023-07-13T14:23:44;3.85;;;0.60;;
79139;SDS011;68546;59.142;37.948;2023-07-13T14:26:13;3.55;;;0.60;;
79139;SDS011;68546;59.142;37.948;2023-07-13T14:28:43;3.73;;;0.60;;
79139;SDS011;68546;59.142;37.948;2023-07-13T14:31:14;3.00;;;0.60;;
79139;SDS011;68546;59.142;37.948;2023-07-13T14:33:42;2.72;;;0.50;;
79139;SDS011;68546;59.142;37.948;2023-07-13T14:36:31;3.92;;;0.68;;
79139;SDS011;68546;59.142;37.948;2023-07-13T14:38:58;4.05;;;0.90;;
79139;SDS011;68546;59.142;37.948;2023-07-13T14:41:26;4.10;;;0.80;;
79139;SDS011;68546;59.142;37.948;2023-07-13T14:43:53;2.75;;;0.50;;
79139;SDS011;68546;59.142;37.948;2023-07-13T14:49:06;3.58;;;0.50;;
79139;SDS011;68546;59.142;37.948;2023-07-13T14:51:42;3.17;;;0.70;;
79139;SDS011;68546;59.142;37.948;2023-07-13T14:54:08;3.73;;;0.50;;
79139;SDS011;68546;59.142;37.948;2023-07-13T14:56:37;2.88;;;0.65;;
79139;SDS011;68546;59.142;37.948;2023-07-13T14:59:03;3.20;;;0.55;;
79139;SDS011;68546;59.142;37.948;2023-07-13T15:01:30;2.95;;;0.70;;
79139;SDS011;68546;59.142;37.948;2023-07-13T15:03:57;3.15;;;0.60;;
79139;SDS011;68546;59.142;37.948;2023-07-13T15:06:26;2.93;;;0.53;;
79139;SDS011;68546;59.142;37.948;2023-07-13T15:08:54;3.30;;;0.43;;
79139;SDS011;68546;59.142;37.948;2023-07-13T15:11:21;4.28;;;0.60;;
79139;SDS011;68546;59.142;37.948;2023-07-13T15:13:48;3.20;;;0.50;;
79139;SDS011;68546;59.142;37.948;2023-07-13T15:16:24;2.80;;;0.60;;
79139;SDS011;68546;59.142;37.948;2023-07-13T15:18:51;3.20;;;0.73;;
79139;SDS011;68546;59.142;37.948;2023-07-13T15:21:21;2.70;;;0.60;;
79139;SDS011;68546;59.142;37.948;2023-07-13T15:23:51;3.03;;;0.70;;
79139;SDS011;68546;59.142;37.948;2023-07-13T15:26:18;2.35;;;0.40;;
79139;SDS011;68546;59.142;37.948;2023-07-13T15:28:45;3.42;;;0.63;;
79139;SDS011;68546;59.142;37.948;2023-07-13T15:31:19;2.70;;;0.50;;